sensor_id;sensor_type;location;lat;lon;timestamp;P1;durP1;ratioP1;P2;durP2;ratioP2
6947;SDS011;3513;47.664;9.162;2022-09-03T00:00:08;17.13;;;9.30;;
6947;SDS011;3513;47.664;9.162;2022-09-03T00:02:40;11.10;;;8.87;;
6947;SDS011;3513;47.664;9.162;2022-09-03T00:05:31;10.60;;;9.40;;
6947;SDS011;3513;47.664;9.162;2022-09-03T00:08:20;12.80;;;9.30;;
6947;SDS011;3513;47.664;9.162;2022-09-03T00:13:37;12.30;;;8.67;;
6947;SDS011;3513;47.664;9.162;2022-09-03T00:16:08;16.90;;;9.17;;
6947;SDS011;3513;47.664;9.162;2022-09-03T00:18:41;11.33;;;9.27;;
6947;SDS011;3513;47.664;9.162;2022-09-03T00:21:11;10.67;;;8.83;;
6947;SDS011;3513;47.664;9.162;2022-09-03T00:23:41;17.80;;;9.20;;
6947;SDS011;3513;47.664;9.162;2022-09-03T00:28:40;9.70;;;8.70;;
6947;SDS011;3513;47.664;9.162;2022-09-03T00:31:15;12.33;;;9.43;;
6947;SDS011;3513;47.664;9.162;2022-09-03T00:34:11;18.17;;;8.83;;
6947;SDS011;3513;47.664;9.162;2022-09-03T00:36:51;10.90;;;8.97;;
6947;SDS011;3513;47.664;9.162;2022-09-03T00:39:18;9.90;;;8.90;;
6947;SDS011;3513;47.664;9.162;2022-09-03T00:52:37;16.67;;;10.17;;
6947;SDS011;3513;47.664;9.162;2022-09-03T01:00:49;9.53;;;8.63;;
6947;SDS011;3513;47.664;9.162;2022-09-03T01:03:39;11.83;;;10.07;;
6947;SDS011;3513;47.664;9.162;2022-09-03T01:06:32;21.10;;;10.60;;
6947;SDS011;3513;47.664;9.162;2022-09-03T01:12:26;11.63;;;10.07;;
6947;SDS011;3513;47.664;9.162;2022-09-03T01:15:16;14.17;;;11.00;;
6947;SDS011;3513;47.664;9.162;2022-09-03T01:17:58;13.90;;;10.50;;
6947;SDS011;3513;47.664;9.162;2022-09-03T01:20:34;16.43;;;10.43;;
6947;SDS011;3513;47.664;9.162;2022-09-03T01:31:36;17.73;;;12.57;;
6947;SDS011;3513;47.664;9.162;2022-09-03T01:42:32;15.03;;;7.83;;
6947;SDS011;3513;47.664;9.162;2022-09-03T01:50:45;7.80;;;6.70;;
6947;SDS011;3513;47.664;9.162;2022-09-03T02:01:36;8.17;;;5.10;;
6947;SDS011;3513;47.664;9.162;2022-09-03T02:04:15;7.10;;;5.60;;
6947;SDS011;3513;47.664;9.162;2022-09-03T02:06:44;8.50;;;5.73;;
6947;SDS011;3513;47.664;9.162;2022-09-03T02:09:13;8.23;;;5.30;;
6947;SDS011;3513;47.664;9.162;2022-09-03T02:11:39;8.90;;;5.50;;
6947;SDS011;3513;47.664;9.162;2022-09-03T02:14:06;8.60;;;5.13;;
6947;SDS011;3513;47.664;9.162;2022-09-03T02:16:32;6.80;;;5.90;;
6947;SDS011;3513;47.664;9.162;2022-09-03T02:19:00;8.13;;;6.17;;
6947;SDS011;3513;47.664;9.162;2022-09-03T02:21:36;6.53;;;5.93;;
6947;SDS011;3513;47.664;9.162;2022-09-03T02:24:04;8.47;;;6.80;;
6947;SDS011;3513;47.664;9.162;2022-09-03T02:26:31;7.13;;;6.13;;
6947;SDS011;3513;47.664;9.162;2022-09-03T02:28:58;12.43;;;6.77;;
6947;SDS011;3513;47.664;9.162;2022-09-03T02:31:26;10.03;;;6.60;;
6947;SDS011;3513;47.664;9.162;2022-09-03T02:33:52;7.73;;;6.50;;
6947;SDS011;3513;47.664;9.162;2022-09-03T02:36:20;9.23;;;6.03;;
6947;SDS011;3513;47.664;9.162;2022-09-03T02:38:51;7.97;;;6.30;;
6947;SDS011;3513;47.664;9.162;2022-09-03T02:41:17;9.53;;;6.10;;
6947;SDS011;3513;47.664;9.162;2022-09-03T02:46:13;8.77;;;6.17;;
6947;SDS011;3513;47.664;9.162;2022-09-03T02:48:45;14.70;;;6.93;;
6947;SDS011;3513;47.664;9.162;2022-09-03T02:51:10;20.63;;;6.57;;
6947;SDS011;3513;47.664;9.162;2022-09-03T02:53:36;7.13;;;6.43;;
6947;SDS011;3513;47.664;9.162;2022-09-03T02:56:02;10.30;;;7.87;;
6947;SDS011;3513;47.664;9.162;2022-09-03T02:58:28;10.40;;;7.80;;
6947;SDS011;3513;47.664;9.162;2022-09-03T03:00:55;11.20;;;6.77;;
6947;SDS011;3513;47.664;9.162;2022-09-03T03:03:22;9.50;;;7.43;;
6947;SDS011;3513;47.664;9.162;2022-09-03T03:05:52;17.03;;;8.27;;
6947;SDS011;3513;47.664;9.162;2022-09-03T03:08:19;12.00;;;7.43;;
6947;SDS011;3513;47.664;9.162;2022-09-03T03:10:47;19.73;;;8.10;;
6947;SDS011;3513;47.664;9.162;2022-09-03T03:13:15;13.60;;;7.30;;
6947;SDS011;3513;47.664;9.162;2022-09-03T03:15:41;7.10;;;6.40;;
6947;SDS011;3513;47.664;9.162;2022-09-03T03:18:07;10.03;;;7.60;;
6947;SDS011;3513;47.664;9.162;2022-09-03T03:20:36;11.30;;;7.87;;
6947;SDS011;3513;47.664;9.162;2022-09-03T03:23:05;11.33;;;9.03;;
6947;SDS011;3513;47.664;9.162;2022-09-03T03:25:34;11.23;;;7.87;;
6947;SDS011;3513;47.664;9.162;2022-09-03T03:28:02;9.33;;;7.57;;
6947;SDS011;3513;47.664;9.162;2022-09-03T03:30:29;8.77;;;7.87;;
6947;SDS011;3513;47.664;9.162;2022-09-03T03:32:56;10.57;;;7.70;;
6947;SDS011;3513;47.664;9.162;2022-09-03T03:35:22;8.07;;;7.27;;
6947;SDS011;3513;47.664;9.162;2022-09-03T03:37:48;11.20;;;7.60;;
6947;SDS011;3513;47.664;9.162;2022-09-03T03:40:14;10.23;;;8.10;;
6947;SDS011;3513;47.664;9.162;2022-09-03T03:42:40;8.63;;;7.50;;
6947;SDS011;3513;47.664;9.162;2022-09-03T03:45:06;9.30;;;7.40;;
6947;SDS011;3513;47.664;9.162;2022-09-03T03:47:34;7.33;;;6.60;;
6947;SDS011;3513;47.664;9.162;2022-09-03T03:50:00;15.13;;;7.00;;
6947;SDS011;3513;47.664;9.162;2022-09-03T03:52:26;8.83;;;7.47;;
6947;SDS011;3513;47.664;9.162;2022-09-03T03:54:52;13.43;;;7.40;;
6947;SDS011;3513;47.664;9.162;2022-09-03T03:57:18;10.70;;;7.50;;
6947;SDS011;3513;47.664;9.162;2022-09-03T03:59:44;7.80;;;7.00;;
6947;SDS011;3513;47.664;9.162;2022-09-03T04:02:11;7.93;;;7.10;;
6947;SDS011;3513;47.664;9.162;2022-09-03T04:04:37;10.43;;;6.83;;
6947;SDS011;3513;47.664;9.162;2022-09-03T04:07:02;6.83;;;6.10;;
6947;SDS011;3513;47.664;9.162;2022-09-03T04:09:28;6.60;;;5.40;;
6947;SDS011;3513;47.664;9.162;2022-09-03T04:11:54;6.83;;;5.63;;
6947;SDS011;3513;47.664;9.162;2022-09-03T04:14:22;6.93;;;5.93;;
6947;SDS011;3513;47.664;9.162;2022-09-03T04:16:48;10.20;;;6.67;;
6947;SDS011;3513;47.664;9.162;2022-09-03T04:19:15;6.83;;;6.13;;
6947;SDS011;3513;47.664;9.162;2022-09-03T04:21:41;9.57;;;5.90;;
6947;SDS011;3513;47.664;9.162;2022-09-03T04:24:07;11.43;;;6.57;;
6947;SDS011;3513;47.664;9.162;2022-09-03T04:26:34;9.70;;;5.90;;
6947;SDS011;3513;47.664;9.162;2022-09-03T04:29:06;6.63;;;5.90;;
6947;SDS011;3513;47.664;9.162;2022-09-03T04:31:34;7.43;;;6.27;;
6947;SDS011;3513;47.664;9.162;2022-09-03T04:34:00;7.43;;;6.73;;
6947;SDS011;3513;47.664;9.162;2022-09-03T04:36:27;7.57;;;6.37;;
6947;SDS011;3513;47.664;9.162;2022-09-03T04:38:54;9.57;;;6.27;;
6947;SDS011;3513;47.664;9.162;2022-09-03T04:41:23;9.60;;;6.47;;
6947;SDS011;3513;47.664;9.162;2022-09-03T04:43:50;8.10;;;6.93;;
6947;SDS011;3513;47.664;9.162;2022-09-03T04:46:21;10.67;;;6.90;;
6947;SDS011;3513;47.664;9.162;2022-09-03T04:48:50;14.53;;;6.33;;
6947;SDS011;3513;47.664;9.162;2022-09-03T04:51:18;7.27;;;6.47;;
6947;SDS011;3513;47.664;9.162;2022-09-03T04:53:46;8.90;;;7.87;;
6947;SDS011;3513;47.664;9.162;2022-09-03T04:56:18;9.83;;;7.53;;
6947;SDS011;3513;47.664;9.162;2022-09-03T04:58:45;10.87;;;7.67;;
6947;SDS011;3513;47.664;9.162;2022-09-03T05:01:17;9.73;;;8.23;;
6947;SDS011;3513;47.664;9.162;2022-09-03T05:03:44;13.87;;;8.70;;
6947;SDS011;3513;47.664;9.162;2022-09-03T05:06:11;15.77;;;8.80;;
6947;SDS011;3513;47.664;9.162;2022-09-03T05:08:39;12.47;;;7.67;;
6947;SDS011;3513;47.664;9.162;2022-09-03T05:11:05;11.27;;;7.90;;
6947;SDS011;3513;47.664;9.162;2022-09-03T05:13:32;14.40;;;8.97;;
6947;SDS011;3513;47.664;9.162;2022-09-03T05:15:59;10.00;;;8.23;;
6947;SDS011;3513;47.664;9.162;2022-09-03T05:18:26;10.40;;;8.00;;
6947;SDS011;3513;47.664;9.162;2022-09-03T05:20:58;14.60;;;8.37;;
6947;SDS011;3513;47.664;9.162;2022-09-03T05:23:29;8.73;;;7.50;;
6947;SDS011;3513;47.664;9.162;2022-09-03T05:25:59;12.03;;;8.53;;
6947;SDS011;3513;47.664;9.162;2022-09-03T05:28:27;10.53;;;7.60;;
6947;SDS011;3513;47.664;9.162;2022-09-03T05:31:36;8.33;;;7.43;;
6947;SDS011;3513;47.664;9.162;2022-09-03T05:33:45;8.33;;;7.40;;
6947;SDS011;3513;47.664;9.162;2022-09-03T05:36:14;11.40;;;7.03;;
6947;SDS011;3513;47.664;9.162;2022-09-03T05:38:41;9.93;;;7.13;;
6947;SDS011;3513;47.664;9.162;2022-09-03T05:41:08;11.93;;;7.47;;
6947;SDS011;3513;47.664;9.162;2022-09-03T05:43:35;8.60;;;7.60;;
6947;SDS011;3513;47.664;9.162;2022-09-03T05:46:06;9.50;;;7.50;;
6947;SDS011;3513;47.664;9.162;2022-09-03T05:48:34;8.50;;;7.60;;
6947;SDS011;3513;47.664;9.162;2022-09-03T05:51:02;9.63;;;8.00;;
6947;SDS011;3513;47.664;9.162;2022-09-03T05:53:30;11.97;;;8.77;;
6947;SDS011;3513;47.664;9.162;2022-09-03T05:55:58;14.13;;;8.03;;
6947;SDS011;3513;47.664;9.162;2022-09-03T05:58:35;14.53;;;8.60;;
6947;SDS011;3513;47.664;9.162;2022-09-03T06:01:16;16.20;;;10.93;;
6947;SDS011;3513;47.664;9.162;2022-09-03T06:03:44;30.63;;;13.50;;
6947;SDS011;3513;47.664;9.162;2022-09-03T06:06:12;24.43;;;14.00;;
6947;SDS011;3513;47.664;9.162;2022-09-03T06:08:38;20.17;;;10.37;;
6947;SDS011;3513;47.664;9.162;2022-09-03T06:11:06;18.20;;;12.30;;
6947;SDS011;3513;47.664;9.162;2022-09-03T06:13:33;27.43;;;13.83;;
6947;SDS011;3513;47.664;9.162;2022-09-03T06:15:59;22.40;;;13.00;;
6947;SDS011;3513;47.664;9.162;2022-09-03T06:18:27;14.30;;;9.87;;
6947;SDS011;3513;47.664;9.162;2022-09-03T06:20:55;9.83;;;7.60;;
6947;SDS011;3513;47.664;9.162;2022-09-03T06:23:28;8.33;;;7.10;;
6947;SDS011;3513;47.664;9.162;2022-09-03T06:28:27;11.33;;;6.80;;
6947;SDS011;3513;47.664;9.162;2022-09-03T06:30:53;9.80;;;6.57;;
6947;SDS011;3513;47.664;9.162;2022-09-03T06:33:21;28.90;;;16.37;;
6947;SDS011;3513;47.664;9.162;2022-09-03T06:35:51;11.90;;;7.20;;
6947;SDS011;3513;47.664;9.162;2022-09-03T06:38:27;8.93;;;5.90;;
6947;SDS011;3513;47.664;9.162;2022-09-03T06:40:56;5.20;;;4.77;;
6947;SDS011;3513;47.664;9.162;2022-09-03T06:43:25;6.83;;;5.03;;
6947;SDS011;3513;47.664;9.162;2022-09-03T06:45:56;8.17;;;6.30;;
6947;SDS011;3513;47.664;9.162;2022-09-03T06:48:23;4.77;;;4.30;;
6947;SDS011;3513;47.664;9.162;2022-09-03T06:50:53;6.63;;;5.73;;
6947;SDS011;3513;47.664;9.162;2022-09-03T06:53:26;7.03;;;5.00;;
6947;SDS011;3513;47.664;9.162;2022-09-03T06:55:57;7.73;;;6.40;;
6947;SDS011;3513;47.664;9.162;2022-09-03T06:58:27;6.07;;;4.60;;
6947;SDS011;3513;47.664;9.162;2022-09-03T07:00:59;6.97;;;5.30;;
6947;SDS011;3513;47.664;9.162;2022-09-03T07:03:26;8.63;;;5.47;;
6947;SDS011;3513;47.664;9.162;2022-09-03T07:05:52;6.60;;;5.33;;
6947;SDS011;3513;47.664;9.162;2022-09-03T07:08:17;5.57;;;5.03;;
6947;SDS011;3513;47.664;9.162;2022-09-03T07:10:46;6.00;;;5.40;;
6947;SDS011;3513;47.664;9.162;2022-09-03T07:13:13;7.20;;;5.27;;
6947;SDS011;3513;47.664;9.162;2022-09-03T07:15:38;7.17;;;6.13;;
6947;SDS011;3513;47.664;9.162;2022-09-03T07:18:05;6.23;;;5.10;;
6947;SDS011;3513;47.664;9.162;2022-09-03T07:20:30;13.33;;;9.50;;
6947;SDS011;3513;47.664;9.162;2022-09-03T07:22:56;11.63;;;7.80;;
6947;SDS011;3513;47.664;9.162;2022-09-03T07:25:23;10.00;;;7.13;;
6947;SDS011;3513;47.664;9.162;2022-09-03T07:27:50;7.37;;;6.67;;
6947;SDS011;3513;47.664;9.162;2022-09-03T07:30:16;10.90;;;6.97;;
6947;SDS011;3513;47.664;9.162;2022-09-03T07:32:44;10.63;;;6.77;;
6947;SDS011;3513;47.664;9.162;2022-09-03T07:35:11;7.40;;;5.83;;
6947;SDS011;3513;47.664;9.162;2022-09-03T07:37:39;5.70;;;5.20;;
6947;SDS011;3513;47.664;9.162;2022-09-03T07:40:07;7.00;;;6.00;;
6947;SDS011;3513;47.664;9.162;2022-09-03T07:42:34;10.43;;;5.63;;
6947;SDS011;3513;47.664;9.162;2022-09-03T07:45:02;5.70;;;5.20;;
6947;SDS011;3513;47.664;9.162;2022-09-03T07:47:30;9.93;;;5.27;;
6947;SDS011;3513;47.664;9.162;2022-09-03T07:49:56;5.57;;;5.03;;
6947;SDS011;3513;47.664;9.162;2022-09-03T07:52:22;6.47;;;4.83;;
6947;SDS011;3513;47.664;9.162;2022-09-03T07:54:47;5.00;;;4.50;;
6947;SDS011;3513;47.664;9.162;2022-09-03T07:57:13;4.53;;;4.00;;
6947;SDS011;3513;47.664;9.162;2022-09-03T07:59:38;7.30;;;4.23;;
6947;SDS011;3513;47.664;9.162;2022-09-03T08:02:04;5.60;;;4.00;;
6947;SDS011;3513;47.664;9.162;2022-09-03T08:04:30;5.57;;;4.30;;
6947;SDS011;3513;47.664;9.162;2022-09-03T08:06:57;4.77;;;4.30;;
6947;SDS011;3513;47.664;9.162;2022-09-03T08:09:23;10.80;;;6.00;;
6947;SDS011;3513;47.664;9.162;2022-09-03T08:11:49;4.77;;;4.37;;
6947;SDS011;3513;47.664;9.162;2022-09-03T08:14:15;5.23;;;4.70;;
6947;SDS011;3513;47.664;9.162;2022-09-03T08:16:42;4.63;;;4.23;;
6947;SDS011;3513;47.664;9.162;2022-09-03T08:19:11;4.90;;;4.03;;
6947;SDS011;3513;47.664;9.162;2022-09-03T08:21:37;4.60;;;4.20;;
6947;SDS011;3513;47.664;9.162;2022-09-03T08:24:05;5.60;;;3.87;;
6947;SDS011;3513;47.664;9.162;2022-09-03T08:26:35;3.30;;;3.10;;
6947;SDS011;3513;47.664;9.162;2022-09-03T08:29:03;3.20;;;3.00;;
6947;SDS011;3513;47.664;9.162;2022-09-03T08:31:29;5.00;;;3.10;;
6947;SDS011;3513;47.664;9.162;2022-09-03T08:33:57;4.30;;;3.50;;
6947;SDS011;3513;47.664;9.162;2022-09-03T08:36:24;6.90;;;3.80;;
6947;SDS011;3513;47.664;9.162;2022-09-03T08:38:52;5.63;;;3.83;;
6947;SDS011;3513;47.664;9.162;2022-09-03T08:46:16;5.37;;;4.13;;
6947;SDS011;3513;47.664;9.162;2022-09-03T08:48:42;4.70;;;3.17;;
6947;SDS011;3513;47.664;9.162;2022-09-03T08:51:07;4.43;;;3.10;;
6947;SDS011;3513;47.664;9.162;2022-09-03T08:56:37;3.27;;;2.97;;
6947;SDS011;3513;47.664;9.162;2022-09-03T08:59:03;3.87;;;3.33;;
6947;SDS011;3513;47.664;9.162;2022-09-03T09:09:54;3.70;;;3.40;;
6947;SDS011;3513;47.664;9.162;2022-09-03T09:16:02;2.90;;;2.70;;
6947;SDS011;3513;47.664;9.162;2022-09-03T09:19:07;2.63;;;2.43;;
6947;SDS011;3513;47.664;9.162;2022-09-03T09:21:58;4.53;;;3.73;;
6947;SDS011;3513;47.664;9.162;2022-09-03T09:24:35;3.27;;;2.83;;
6947;SDS011;3513;47.664;9.162;2022-09-03T09:27:06;4.87;;;2.87;;
6947;SDS011;3513;47.664;9.162;2022-09-03T09:29:36;8.20;;;3.70;;
6947;SDS011;3513;47.664;9.162;2022-09-03T09:32:03;5.33;;;4.07;;
6947;SDS011;3513;47.664;9.162;2022-09-03T09:34:34;3.17;;;2.93;;
6947;SDS011;3513;47.664;9.162;2022-09-03T09:37:02;5.97;;;3.80;;
6947;SDS011;3513;47.664;9.162;2022-09-03T09:39:39;4.80;;;2.87;;
6947;SDS011;3513;47.664;9.162;2022-09-03T09:42:19;3.77;;;3.00;;
6947;SDS011;3513;47.664;9.162;2022-09-03T09:44:45;26.57;;;3.80;;
6947;SDS011;3513;47.664;9.162;2022-09-03T09:47:12;4.63;;;3.17;;
6947;SDS011;3513;47.664;9.162;2022-09-03T09:49:56;9.63;;;2.57;;
6947;SDS011;3513;47.664;9.162;2022-09-03T09:52:24;4.93;;;2.90;;
6947;SDS011;3513;47.664;9.162;2022-09-03T09:54:53;2.73;;;2.53;;
6947;SDS011;3513;47.664;9.162;2022-09-03T09:57:32;3.77;;;3.37;;
6947;SDS011;3513;47.664;9.162;2022-09-03T10:00:05;2.83;;;2.63;;
6947;SDS011;3513;47.664;9.162;2022-09-03T10:02:46;2.93;;;2.67;;
6947;SDS011;3513;47.664;9.162;2022-09-03T10:05:25;3.70;;;3.13;;
6947;SDS011;3513;47.664;9.162;2022-09-03T10:07:58;2.80;;;1.97;;
6947;SDS011;3513;47.664;9.162;2022-09-03T10:10:25;4.03;;;2.03;;
6947;SDS011;3513;47.664;9.162;2022-09-03T10:18:07;8.07;;;3.10;;
6947;SDS011;3513;47.664;9.162;2022-09-03T10:20:53;3.10;;;2.80;;
6947;SDS011;3513;47.664;9.162;2022-09-03T10:23:23;7.13;;;3.00;;
6947;SDS011;3513;47.664;9.162;2022-09-03T10:28:31;3.53;;;3.27;;
6947;SDS011;3513;47.664;9.162;2022-09-03T10:34:02;15.20;;;5.00;;
6947;SDS011;3513;47.664;9.162;2022-09-03T10:36:40;7.30;;;4.97;;
6947;SDS011;3513;47.664;9.162;2022-09-03T10:39:34;10.73;;;4.70;;
6947;SDS011;3513;47.664;9.162;2022-09-03T10:47:41;6.10;;;5.43;;
6947;SDS011;3513;47.664;9.162;2022-09-03T10:50:14;6.73;;;4.90;;
6947;SDS011;3513;47.664;9.162;2022-09-03T10:55:31;6.93;;;5.57;;
6947;SDS011;3513;47.664;9.162;2022-09-03T10:58:20;9.00;;;5.00;;
6947;SDS011;3513;47.664;9.162;2022-09-03T11:01:13;7.90;;;6.20;;
6947;SDS011;3513;47.664;9.162;2022-09-03T11:06:50;5.20;;;4.50;;
6947;SDS011;3513;47.664;9.162;2022-09-03T11:09:21;7.70;;;3.97;;
6947;SDS011;3513;47.664;9.162;2022-09-03T11:11:50;4.90;;;4.40;;
6947;SDS011;3513;47.664;9.162;2022-09-03T11:14:43;7.10;;;4.77;;
6947;SDS011;3513;47.664;9.162;2022-09-03T11:17:15;4.77;;;4.30;;
6947;SDS011;3513;47.664;9.162;2022-09-03T11:22:43;8.00;;;4.37;;
6947;SDS011;3513;47.664;9.162;2022-09-03T11:25:12;4.70;;;4.30;;
6947;SDS011;3513;47.664;9.162;2022-09-03T11:32:50;14.40;;;4.50;;
6947;SDS011;3513;47.664;9.162;2022-09-03T11:38:02;4.90;;;4.40;;
6947;SDS011;3513;47.664;9.162;2022-09-03T11:40:39;8.40;;;3.90;;
6947;SDS011;3513;47.664;9.162;2022-09-03T11:46:08;4.07;;;3.67;;
6947;SDS011;3513;47.664;9.162;2022-09-03T11:49:10;3.63;;;2.70;;
6947;SDS011;3513;47.664;9.162;2022-09-03T11:51:38;3.50;;;3.00;;
6947;SDS011;3513;47.664;9.162;2022-09-03T11:56:47;2.03;;;1.70;;
6947;SDS011;3513;47.664;9.162;2022-09-03T11:59:23;5.40;;;2.23;;
6947;SDS011;3513;47.664;9.162;2022-09-03T12:01:57;2.17;;;1.80;;
6947;SDS011;3513;47.664;9.162;2022-09-03T12:04:49;2.87;;;1.90;;
6947;SDS011;3513;47.664;9.162;2022-09-03T12:14:01;3.30;;;1.23;;
6947;SDS011;3513;47.664;9.162;2022-09-03T12:19:03;3.20;;;1.77;;
6947;SDS011;3513;47.664;9.162;2022-09-03T12:21:37;3.23;;;1.80;;
6947;SDS011;3513;47.664;9.162;2022-09-03T12:24:05;1.13;;;1.13;;
6947;SDS011;3513;47.664;9.162;2022-09-03T12:26:38;2.10;;;1.60;;
6947;SDS011;3513;47.664;9.162;2022-09-03T12:29:05;3.33;;;2.07;;
6947;SDS011;3513;47.664;9.162;2022-09-03T12:31:44;1.57;;;1.27;;
6947;SDS011;3513;47.664;9.162;2022-09-03T12:34:14;3.90;;;1.30;;
6947;SDS011;3513;47.664;9.162;2022-09-03T12:36:43;3.10;;;1.20;;
6947;SDS011;3513;47.664;9.162;2022-09-03T12:39:14;1.37;;;1.10;;
6947;SDS011;3513;47.664;9.162;2022-09-03T12:42:17;4.50;;;1.50;;
6947;SDS011;3513;47.664;9.162;2022-09-03T12:47:13;2.10;;;1.50;;
6947;SDS011;3513;47.664;9.162;2022-09-03T12:49:44;1.10;;;1.10;;
6947;SDS011;3513;47.664;9.162;2022-09-03T12:52:31;1.73;;;1.10;;
6947;SDS011;3513;47.664;9.162;2022-09-03T12:55:13;3.13;;;1.43;;
6947;SDS011;3513;47.664;9.162;2022-09-03T12:58:21;1.33;;;1.27;;
6947;SDS011;3513;47.664;9.162;2022-09-03T13:06:11;1.03;;;0.93;;
6947;SDS011;3513;47.664;9.162;2022-09-03T13:11:39;1.10;;;1.00;;
6947;SDS011;3513;47.664;9.162;2022-09-03T13:14:06;1.20;;;1.10;;
6947;SDS011;3513;47.664;9.162;2022-09-03T13:19:12;1.00;;;1.00;;
6947;SDS011;3513;47.664;9.162;2022-09-03T13:27:54;2.90;;;1.07;;
6947;SDS011;3513;47.664;9.162;2022-09-03T13:31:01;1.13;;;1.10;;
6947;SDS011;3513;47.664;9.162;2022-09-03T13:33:52;4.87;;;1.40;;
6947;SDS011;3513;47.664;9.162;2022-09-03T13:36:35;3.27;;;1.70;;
6947;SDS011;3513;47.664;9.162;2022-09-03T13:39:29;1.10;;;1.10;;
6947;SDS011;3513;47.664;9.162;2022-09-03T13:42:04;1.37;;;1.27;;
6947;SDS011;3513;47.664;9.162;2022-09-03T13:44:38;1.30;;;1.20;;
6947;SDS011;3513;47.664;9.162;2022-09-03T13:58:28;11.50;;;2.10;;
6947;SDS011;3513;47.664;9.162;2022-09-03T14:03:34;1.73;;;1.43;;
6947;SDS011;3513;47.664;9.162;2022-09-03T14:17:12;2.50;;;1.80;;
6947;SDS011;3513;47.664;9.162;2022-09-03T14:20:02;1.43;;;1.30;;
6947;SDS011;3513;47.664;9.162;2022-09-03T14:25:17;2.17;;;1.50;;
6947;SDS011;3513;47.664;9.162;2022-09-03T14:27:45;1.60;;;1.50;;
6947;SDS011;3513;47.664;9.162;2022-09-03T14:30:57;3.33;;;1.37;;
6947;SDS011;3513;47.664;9.162;2022-09-03T14:33:15;2.07;;;1.60;;
6947;SDS011;3513;47.664;9.162;2022-09-03T14:47:46;1.40;;;1.30;;
6947;SDS011;3513;47.664;9.162;2022-09-03T14:50:33;1.50;;;1.40;;
6947;SDS011;3513;47.664;9.162;2022-09-03T14:53:16;2.93;;;1.60;;
6947;SDS011;3513;47.664;9.162;2022-09-03T15:01:37;1.47;;;1.30;;
6947;SDS011;3513;47.664;9.162;2022-09-03T15:12:21;1.60;;;1.50;;
6947;SDS011;3513;47.664;9.162;2022-09-03T15:15:00;1.67;;;1.57;;
6947;SDS011;3513;47.664;9.162;2022-09-03T15:23:30;2.27;;;1.70;;
6947;SDS011;3513;47.664;9.162;2022-09-03T15:26:36;1.50;;;1.40;;
6947;SDS011;3513;47.664;9.162;2022-09-03T15:36:51;3.60;;;1.50;;
6947;SDS011;3513;47.664;9.162;2022-09-03T15:39:26;2.53;;;1.33;;
6947;SDS011;3513;47.664;9.162;2022-09-03T15:42:03;1.43;;;1.30;;
6947;SDS011;3513;47.664;9.162;2022-09-03T15:44:37;1.47;;;1.20;;
6947;SDS011;3513;47.664;9.162;2022-09-03T15:47:31;2.90;;;1.30;;
6947;SDS011;3513;47.664;9.162;2022-09-03T15:52:41;3.43;;;1.10;;
6947;SDS011;3513;47.664;9.162;2022-09-03T15:55:12;1.47;;;1.37;;
6947;SDS011;3513;47.664;9.162;2022-09-03T15:58:03;3.33;;;1.43;;
6947;SDS011;3513;47.664;9.162;2022-09-03T16:00:49;3.37;;;1.97;;
6947;SDS011;3513;47.664;9.162;2022-09-03T16:08:54;7.13;;;1.30;;
6947;SDS011;3513;47.664;9.162;2022-09-03T16:25:01;1.40;;;1.30;;
6947;SDS011;3513;47.664;9.162;2022-09-03T16:27:36;2.10;;;1.90;;
6947;SDS011;3513;47.664;9.162;2022-09-03T16:32:41;2.70;;;1.30;;
6947;SDS011;3513;47.664;9.162;2022-09-03T16:51:26;6.53;;;1.67;;
6947;SDS011;3513;47.664;9.162;2022-09-03T16:54:18;3.13;;;1.40;;
6947;SDS011;3513;47.664;9.162;2022-09-03T17:12:20;3.57;;;1.33;;
6947;SDS011;3513;47.664;9.162;2022-09-03T17:15:10;2.00;;;1.60;;
6947;SDS011;3513;47.664;9.162;2022-09-03T17:26:25;2.80;;;1.33;;
6947;SDS011;3513;47.664;9.162;2022-09-03T17:37:34;3.93;;;1.70;;
6947;SDS011;3513;47.664;9.162;2022-09-03T17:43:16;3.47;;;2.00;;
6947;SDS011;3513;47.664;9.162;2022-09-03T17:49:00;1.87;;;1.70;;
6947;SDS011;3513;47.664;9.162;2022-09-03T17:51:35;5.80;;;2.23;;
6947;SDS011;3513;47.664;9.162;2022-09-03T17:59:40;4.80;;;1.77;;
6947;SDS011;3513;47.664;9.162;2022-09-03T18:02:29;2.80;;;2.57;;
6947;SDS011;3513;47.664;9.162;2022-09-03T18:07:51;4.27;;;2.33;;
6947;SDS011;3513;47.664;9.162;2022-09-03T18:10:38;3.73;;;2.00;;
6947;SDS011;3513;47.664;9.162;2022-09-03T18:13:10;3.93;;;2.30;;
6947;SDS011;3513;47.664;9.162;2022-09-03T18:15:50;3.23;;;2.13;;
6947;SDS011;3513;47.664;9.162;2022-09-03T18:18:23;4.13;;;2.20;;
6947;SDS011;3513;47.664;9.162;2022-09-03T18:20:54;3.10;;;2.80;;
6947;SDS011;3513;47.664;9.162;2022-09-03T18:23:57;3.33;;;2.23;;
6947;SDS011;3513;47.664;9.162;2022-09-03T18:27:00;3.03;;;2.70;;
6947;SDS011;3513;47.664;9.162;2022-09-03T18:32:52;4.57;;;2.90;;
6947;SDS011;3513;47.664;9.162;2022-09-03T18:35:37;8.97;;;6.13;;
6947;SDS011;3513;47.664;9.162;2022-09-03T18:38:23;7.33;;;5.47;;
6947;SDS011;3513;47.664;9.162;2022-09-03T18:41:23;7.40;;;5.07;;
6947;SDS011;3513;47.664;9.162;2022-09-03T18:56:39;7.50;;;5.40;;
6947;SDS011;3513;47.664;9.162;2022-09-03T19:08:37;6.93;;;5.23;;
6947;SDS011;3513;47.664;9.162;2022-09-03T19:20:45;11.03;;;6.30;;
6947;SDS011;3513;47.664;9.162;2022-09-03T19:23:40;15.33;;;9.10;;
6947;SDS011;3513;47.664;9.162;2022-09-03T19:32:58;16.30;;;9.57;;
6947;SDS011;3513;47.664;9.162;2022-09-03T19:41:40;19.53;;;12.80;;
6947;SDS011;3513;47.664;9.162;2022-09-03T19:44:29;18.20;;;8.07;;
6947;SDS011;3513;47.664;9.162;2022-09-03T19:48:02;10.67;;;6.70;;
6947;SDS011;3513;47.664;9.162;2022-09-03T19:50:44;12.13;;;7.40;;
6947;SDS011;3513;47.664;9.162;2022-09-03T19:53:41;6.87;;;6.17;;
6947;SDS011;3513;47.664;9.162;2022-09-03T19:56:27;9.90;;;5.77;;
6947;SDS011;3513;47.664;9.162;2022-09-03T19:59:12;12.40;;;6.77;;
6947;SDS011;3513;47.664;9.162;2022-09-03T20:02:05;9.60;;;6.43;;
6947;SDS011;3513;47.664;9.162;2022-09-03T20:04:51;7.87;;;5.67;;
6947;SDS011;3513;47.664;9.162;2022-09-03T20:07:44;7.77;;;5.37;;
6947;SDS011;3513;47.664;9.162;2022-09-03T20:10:32;12.83;;;5.90;;
6947;SDS011;3513;47.664;9.162;2022-09-03T20:13:16;7.83;;;5.20;;
6947;SDS011;3513;47.664;9.162;2022-09-03T20:28:49;5.33;;;3.30;;
6947;SDS011;3513;47.664;9.162;2022-09-03T20:31:48;8.80;;;3.43;;
6947;SDS011;3513;47.664;9.162;2022-09-03T20:34:30;8.27;;;3.80;;
6947;SDS011;3513;47.664;9.162;2022-09-03T20:39:31;3.07;;;2.77;;
6947;SDS011;3513;47.664;9.162;2022-09-03T20:45:15;3.90;;;3.07;;
6947;SDS011;3513;47.664;9.162;2022-09-03T20:47:48;5.27;;;3.70;;
6947;SDS011;3513;47.664;9.162;2022-09-03T20:55:49;6.83;;;3.70;;
6947;SDS011;3513;47.664;9.162;2022-09-03T21:05:58;7.83;;;4.27;;
6947;SDS011;3513;47.664;9.162;2022-09-03T21:11:48;5.70;;;3.10;;
6947;SDS011;3513;47.664;9.162;2022-09-03T21:24:49;7.03;;;4.40;;
6947;SDS011;3513;47.664;9.162;2022-09-03T21:27:22;8.63;;;4.27;;
6947;SDS011;3513;47.664;9.162;2022-09-03T21:32:41;11.80;;;4.77;;
6947;SDS011;3513;47.664;9.162;2022-09-03T21:35:36;9.33;;;3.97;;
6947;SDS011;3513;47.664;9.162;2022-09-03T21:38:07;10.70;;;4.57;;
6947;SDS011;3513;47.664;9.162;2022-09-03T21:40:40;5.70;;;3.80;;
6947;SDS011;3513;47.664;9.162;2022-09-03T21:43:16;4.33;;;3.93;;
6947;SDS011;3513;47.664;9.162;2022-09-03T21:48:31;4.30;;;3.90;;
6947;SDS011;3513;47.664;9.162;2022-09-03T21:51:00;5.67;;;4.03;;
6947;SDS011;3513;47.664;9.162;2022-09-03T21:59:15;3.73;;;3.33;;
6947;SDS011;3513;47.664;9.162;2022-09-03T22:04:36;8.60;;;4.27;;
6947;SDS011;3513;47.664;9.162;2022-09-03T22:07:08;6.77;;;3.87;;
6947;SDS011;3513;47.664;9.162;2022-09-03T22:12:42;7.70;;;4.33;;
6947;SDS011;3513;47.664;9.162;2022-09-03T22:15:09;26.37;;;4.27;;
6947;SDS011;3513;47.664;9.162;2022-09-03T22:17:43;6.80;;;4.60;;
6947;SDS011;3513;47.664;9.162;2022-09-03T22:20:31;6.07;;;4.67;;
6947;SDS011;3513;47.664;9.162;2022-09-03T22:23:10;8.53;;;5.00;;
6947;SDS011;3513;47.664;9.162;2022-09-03T22:31:06;5.90;;;4.60;;
6947;SDS011;3513;47.664;9.162;2022-09-03T22:33:43;7.30;;;4.60;;
6947;SDS011;3513;47.664;9.162;2022-09-03T22:50:14;6.37;;;4.70;;
6947;SDS011;3513;47.664;9.162;2022-09-03T22:53:05;9.30;;;4.40;;
6947;SDS011;3513;47.664;9.162;2022-09-03T22:58:44;5.63;;;3.80;;
6947;SDS011;3513;47.664;9.162;2022-09-03T23:01:38;6.63;;;5.03;;
6947;SDS011;3513;47.664;9.162;2022-09-03T23:06:48;10.90;;;4.50;;